Time;durP1;ratioP1;P1;durP2;ratioP2;P2;SDS_P1;SDS_P2;PMS_P1;PMS_P2;Temp;Humidity;BMP_temperature;BMP_pressure;BME280_temperature;BME280_humidity;BME280_pressure;Samples;Min_cycle;Max_cycle;Signal;HPM_P1;HPM_P2
2023/02/09 00:01:36;;;;;;;27.02;13.82;;;-2.60;1.00;;;;;;7361304;19;20018;-72
2023/02/09 00:04:06;;;;;;;29.13;15.63;;;-2.60;1.00;;;;;;7366792;19;20039;-74
2023/02/09 00:06:39;;;;;;;28.23;14.73;;;-2.70;1.00;;;;;;7390372;19;20014;-74
2023/02/09 00:09:08;;;;;;;28.23;14.40;;;-2.70;1.00;;;;;;7388383;19;20345;-73
2023/02/09 00:14:26;;;;;;;26.35;13.52;;;-2.80;1.00;;;;;;7388237;19;20018;-74
2023/02/09 00:16:56;;;;;;;26.00;13.75;;;-2.80;1.00;;;;;;7389825;19;20039;-73
2023/02/09 00:19:26;;;;;;;26.23;14.05;;;-2.80;1.00;;;;;;7388384;19;20074;-73
2023/02/09 00:21:59;;;;;;;31.05;14.95;;;-2.80;1.00;;;;;;7388985;19;20014;-72
2023/02/09 00:24:29;;;;;;;30.42;13.77;;;-2.80;1.00;;;;;;7388587;19;20015;-72
2023/02/09 00:26:59;;;;;;;25.85;13.48;;;-2.90;1.00;;;;;;7389806;19;20031;-72
2023/02/09 00:29:29;;;;;;;26.30;13.65;;;-2.80;1.00;;;;;;7388171;19;20015;-72
2023/02/09 00:31:58;;;;;;;27.75;14.02;;;-2.90;1.00;;;;;;7389545;19;20024;-73
2023/02/09 00:34:28;;;;;;;27.00;13.45;;;-2.90;1.00;;;;;;7350533;19;20097;-73
2023/02/09 00:37:01;;;;;;;28.17;14.20;;;-2.90;1.00;;;;;;7383628;19;20029;-73
2023/02/09 00:39:31;;;;;;;24.55;13.00;;;-2.80;1.00;;;;;;7361261;19;20026;-73
2023/02/09 00:42:10;;;;;;;28.13;13.18;;;-2.80;1.00;;;;;;7360307;19;20497;-74
2023/02/09 00:44:41;;;;;;;26.60;13.68;;;-2.90;1.00;;;;;;7382992;19;20052;-72
2023/02/09 00:47:11;;;;;;;24.77;13.15;;;-3.00;1.00;;;;;;7360588;19;20021;-72
2023/02/09 00:49:41;;;;;;;25.83;12.85;;;-3.00;1.00;;;;;;7360326;19;20482;-72
2023/02/09 00:52:13;;;;;;;26.58;13.23;;;-3.10;1.00;;;;;;7362017;19;20018;-73
2023/02/09 00:54:43;;;;;;;26.77;13.45;;;-3.00;1.00;;;;;;7364541;19;20018;-72
2023/02/09 00:57:13;;;;;;;27.23;13.80;;;-3.00;1.00;;;;;;7361403;19;20042;-73
2023/02/09 00:59:43;;;;;;;22.58;12.55;;;-3.10;1.00;;;;;;7382458;19;20018;-73
2023/02/09 01:02:12;;;;;;;27.17;12.75;;;-3.10;1.00;;;;;;7369959;19;20533;-72
2023/02/09 01:04:42;;;;;;;26.70;12.85;;;-3.10;1.00;;;;;;7393999;19;20015;-73
2023/02/09 01:07:15;;;;;;;24.17;12.45;;;-3.20;1.00;;;;;;7393786;19;20015;-73
2023/02/09 01:09:44;;;;;;;28.13;13.38;;;-3.10;1.00;;;;;;7375660;19;20474;-70
2023/02/09 01:12:14;;;;;;;26.50;13.50;;;-3.10;1.00;;;;;;7361765;19;20021;-71
2023/02/09 01:14:44;;;;;;;24.85;13.57;;;-3.10;1.00;;;;;;7385871;19;20015;-74
2023/02/09 01:17:14;;;;;;;24.25;13.55;;;-3.10;1.00;;;;;;7360598;19;20853;-73
2023/02/09 01:19:44;;;;;;;25.95;12.90;;;-3.10;1.00;;;;;;7358685;19;20039;-73
2023/02/09 01:22:16;;;;;;;27.67;13.43;;;-3.20;1.00;;;;;;7360184;19;20007;-72
2023/02/09 01:24:46;;;;;;;26.67;13.77;;;-3.20;1.00;;;;;;7359854;19;20023;-74
2023/02/09 01:27:16;;;;;;;29.70;14.43;;;-3.20;1.00;;;;;;7360366;19;20105;-73
2023/02/09 01:29:46;;;;;;;27.58;14.60;;;-3.20;1.00;;;;;;7379911;19;20011;-73
2023/02/09 01:32:16;;;;;;;26.88;14.20;;;-3.20;1.00;;;;;;7359387;19;20010;-73
2023/02/09 01:34:46;;;;;;;24.52;12.63;;;-3.20;1.00;;;;;;7362167;19;20029;-74
2023/02/09 01:37:18;;;;;;;24.48;13.07;;;-3.20;1.00;;;;;;7385580;19;20022;-73
2023/02/09 01:39:48;;;;;;;25.95;13.32;;;-3.30;1.00;;;;;;7386385;19;20035;-73
2023/02/09 01:42:21;;;;;;;23.40;13.32;;;-3.30;1.00;;;;;;7387481;19;20121;-74
2023/02/09 01:45:16;;;;;;;27.13;13.68;;;-3.30;1.00;;;;;;7387432;19;20409;-74
2023/02/09 01:47:48;;;;;;;;;;;-3.40;1.00;;;;;;7387230;19;20020;-74
2023/02/09 01:50:18;;;;;;;25.00;13.65;;;-3.40;1.00;;;;;;7385188;19;19923;-74
2023/02/09 01:52:51;;;;;;;30.25;15.75;;;-3.40;1.00;;;;;;7386685;19;20011;-73
2023/02/09 01:55:24;;;;;;;28.23;14.52;;;-3.50;1.00;;;;;;7387630;19;20482;-74
2023/02/09 01:57:58;;;;;;;29.48;16.15;;;-3.50;1.00;;;;;;7386493;19;20006;-74
2023/02/09 02:00:28;;;;;;;27.08;14.82;;;-3.50;1.00;;;;;;7383003;19;20023;-74
2023/02/09 02:03:02;;;;;;;28.30;14.50;;;-3.50;1.00;;;;;;7386671;19;20022;-73
2023/02/09 02:05:35;;;;;;;29.10;15.43;;;-3.50;1.00;;;;;;7387902;19;20475;-75
2023/02/09 02:08:12;;;;;;;33.05;15.60;;;-3.40;1.00;;;;;;7386023;19;20011;-75
2023/02/09 02:10:42;;;;;;;30.75;14.63;;;-3.40;1.00;;;;;;7384774;19;20035;-75
2023/02/09 02:13:13;;;;;;;29.90;15.88;;;-3.40;1.00;;;;;;7387233;19;20017;-75
2023/02/09 02:15:50;;;;;;;30.85;15.38;;;-3.40;1.00;;;;;;7387295;19;20450;-73
2023/02/09 02:18:33;;;;;;;30.67;14.80;;;-3.40;1.00;;;;;;7392492;19;20021;-75
2023/02/09 02:21:38;;;;;;;28.17;15.05;;;-3.50;1.00;;;;;;7393536;19;20011;-75
2023/02/09 02:24:22;;;;;;;;;;;-3.50;1.00;;;;;;7393698;19;20010;-75
2023/02/09 02:26:58;;;;;;;25.85;14.07;;;-3.60;1.00;;;;;;7397342;19;19927;-74
2023/02/09 02:29:58;;;;;;;30.30;16.10;;;-3.70;1.00;;;;;;7391353;19;20021;-76
2023/02/09 02:32:59;;;;;;;30.38;16.85;;;-3.80;1.00;;;;;;7393136;19;20025;-75
2023/02/09 02:35:35;;;;;;;30.17;16.02;;;-3.90;1.00;;;;;;7391112;19;20014;-74
2023/02/09 02:38:15;;;;;;;27.65;15.50;;;-3.90;1.00;;;;;;7393489;19;20017;-75
2023/02/09 02:40:55;;;;;;;27.30;14.52;;;-4.00;1.00;;;;;;7388601;19;20360;-74
2023/02/09 02:43:37;;;;;;;30.20;15.68;;;-4.10;1.00;;;;;;7351575;19;20014;-76
2023/02/09 02:46:11;;;;;;;28.13;15.10;;;-4.10;1.00;;;;;;7391433;19;20042;-75
2023/02/09 02:48:46;;;;;;;29.88;15.55;;;-4.10;1.00;;;;;;7363507;19;20021;-75
2023/02/09 02:51:21;;;;;;;32.05;15.77;;;-4.10;1.00;;;;;;7364566;19;20390;-75
2023/02/09 02:53:55;;;;;;;32.25;16.80;;;-4.10;1.00;;;;;;7365225;19;20034;-75
2023/02/09 02:56:28;;;;;;;29.13;15.93;;;-4.10;1.00;;;;;;7365770;19;20060;-75
2023/02/09 02:59:00;;;;;;;29.00;15.60;;;-4.20;1.00;;;;;;7385150;19;20018;-76
2023/02/09 03:01:36;;;;;;;31.52;16.33;;;-4.20;1.00;;;;;;7363964;19;20081;-75
2023/02/09 03:04:10;;;;;;;29.17;15.77;;;-4.20;1.00;;;;;;7364206;19;20081;-75
2023/02/09 03:06:40;;;;;;;28.77;15.68;;;-4.20;1.00;;;;;;7363926;19;20011;-75
2023/02/09 03:09:10;;;;;;;30.60;16.15;;;-4.30;1.00;;;;;;7363393;19;20011;-75
2023/02/09 03:11:43;;;;;;;31.38;16.58;;;-4.30;1.00;;;;;;7364133;19;20006;-75
2023/02/09 03:14:28;;;;;;;31.88;16.70;;;-4.30;1.00;;;;;;7365762;19;20459;-75
2023/02/09 03:17:13;;;;;;;30.80;15.57;;;-4.30;1.00;;;;;;7387883;19;20081;-75
2023/02/09 03:19:49;;;;;;;;;;;-4.30;1.00;;;;;;7361879;19;20017;-75
2023/02/09 03:22:27;;;;;;;32.35;16.90;;;-4.30;1.00;;;;;;7362500;19;19941;-75
2023/02/09 03:25:02;;;;;;;31.10;16.85;;;-4.30;1.00;;;;;;7363282;19;20029;-75
2023/02/09 03:27:36;;;;;;;31.88;17.02;;;-4.20;1.00;;;;;;7362193;19;20123;-75
2023/02/09 03:30:08;;;;;;;32.47;16.88;;;-4.10;1.00;;;;;;7360529;19;20014;-74
2023/02/09 03:32:39;;;;;;;34.38;16.77;;;-4.10;1.00;;;;;;7363501;19;20153;-75
2023/02/09 03:35:15;;;;;;;31.35;16.63;;;-4.10;1.00;;;;;;7363033;19;20015;-75
2023/02/09 03:37:45;;;;;;;37.00;18.08;;;-4.00;1.00;;;;;;7382157;19;20077;-75
2023/02/09 03:40:15;;;;;;;36.42;17.55;;;-4.00;1.00;;;;;;7360460;19;20014;-75
2023/02/09 03:42:45;;;;;;;37.42;18.25;;;-3.90;1.00;;;;;;7364119;19;20007;-75
2023/02/09 03:45:15;;;;;;;42.17;17.95;;;-4.00;1.00;;;;;;7394267;19;20010;-75
2023/02/09 03:47:45;;;;;;;32.90;17.10;;;-3.90;1.00;;;;;;7390566;19;20021;-75
2023/02/09 03:50:17;;;;;;;37.25;18.20;;;-3.80;1.00;;;;;;7386626;19;20028;-74
2023/02/09 03:52:47;;;;;;;35.05;18.25;;;-3.80;1.00;;;;;;7390372;19;20038;-76
2023/02/09 03:55:17;;;;;;;32.42;16.55;;;-3.80;1.00;;;;;;7389058;19;20034;-77
2023/02/09 03:57:47;;;;;;;41.25;18.25;;;-3.70;1.00;;;;;;7388107;19;20024;-75
2023/02/09 04:00:18;;;;;;;34.42;17.10;;;-3.80;1.00;;;;;;7388405;19;20042;-75
2023/02/09 04:02:48;;;;;;;33.28;17.02;;;-3.60;1.00;;;;;;7389041;19;20083;-75
2023/02/09 04:05:21;;;;;;;31.58;16.05;;;-3.70;1.00;;;;;;7388954;19;20021;-75
2023/02/09 04:07:51;;;;;;;31.63;16.02;;;-3.70;1.00;;;;;;7390048;19;20010;-75
2023/02/09 04:10:21;;;;;;;31.23;15.48;;;-3.70;1.00;;;;;;7387673;19;20019;-74
2023/02/09 04:12:51;;;;;;;31.95;17.05;;;-3.80;1.00;;;;;;7390400;19;20014;-75
2023/02/09 04:15:21;;;;;;;33.67;15.88;;;-3.80;1.00;;;;;;7387951;19;20018;-75
2023/02/09 04:17:51;;;;;;;28.52;15.05;;;-3.90;1.00;;;;;;7388426;19;20363;-74
2023/02/09 04:20:23;;;;;;;29.08;15.55;;;-3.80;1.00;;;;;;7386178;19;20015;-75
2023/02/09 04:22:53;;;;;;;32.20;16.98;;;-3.90;1.00;;;;;;7389676;19;20026;-75
2023/02/09 04:25:23;;;;;;;33.10;16.83;;;-3.90;1.00;;;;;;7390912;19;20017;-76
2023/02/09 04:27:52;;;;;;;31.45;15.80;;;-4.00;1.00;;;;;;7391317;19;20010;-74
2023/02/09 04:30:22;;;;;;;33.33;16.38;;;-4.00;1.00;;;;;;7388920;19;20008;-75
2023/02/09 04:32:53;;;;;;;32.10;16.85;;;-4.00;1.00;;;;;;7390552;19;20145;-75
2023/02/09 04:35:25;;;;;;;32.10;16.08;;;-4.00;1.00;;;;;;7398891;19;20014;-75
2023/02/09 04:37:55;;;;;;;34.88;16.90;;;-4.00;1.00;;;;;;7419679;19;20468;-75
2023/02/09 04:40:25;;;;;;;35.40;16.35;;;-4.00;1.00;;;;;;7418154;19;20014;-75
2023/02/09 04:42:55;;;;;;;28.55;15.40;;;-4.00;1.00;;;;;;7404222;19;20014;-75
2023/02/09 04:45:24;;;;;;;32.08;17.23;;;-4.10;1.00;;;;;;7388629;19;20474;-75
2023/02/09 04:47:54;;;;;;;29.40;15.32;;;-4.20;1.00;;;;;;7361712;19;20010;-75
2023/02/09 04:50:26;;;;;;;34.83;16.83;;;-4.20;1.00;;;;;;7386919;19;20784;-75
2023/02/09 04:52:56;;;;;;;37.45;17.38;;;-4.20;1.00;;;;;;7361570;19;20358;-75
2023/02/09 04:55:26;;;;;;;31.90;16.15;;;-4.10;1.00;;;;;;7360227;19;20043;-75
2023/02/09 05:00:38;;;;;;;31.15;15.20;;;-4.10;1.00;;;;;;7358367;19;20604;-76
2023/02/09 05:03:08;;;;;;;31.00;16.58;;;-4.10;1.00;;;;;;7381256;19;20027;-75
2023/02/09 05:05:44;;;;;;;32.17;16.42;;;-4.20;1.00;;;;;;7359302;19;20011;-75
2023/02/09 05:08:14;;;;;;;31.38;16.17;;;-4.20;1.00;;;;;;7359816;19;20010;-75
2023/02/09 05:10:43;;;;;;;31.20;16.98;;;-4.20;1.00;;;;;;7358883;19;20014;-75
2023/02/09 05:13:13;;;;;;;33.20;15.70;;;-4.20;1.00;;;;;;7359679;19;20056;-75
2023/02/09 05:15:43;;;;;;;28.58;15.90;;;-4.10;1.00;;;;;;7358156;19;20031;-76
2023/02/09 05:18:14;;;;;;;34.75;16.73;;;-4.10;1.00;;;;;;7379457;19;20033;-75
2023/02/09 05:20:47;;;;;;;29.45;16.40;;;-4.20;1.00;;;;;;7358712;19;20007;-74
2023/02/09 05:23:17;;;;;;;30.52;15.73;;;-4.20;1.00;;;;;;7359377;19;20510;-74
2023/02/09 05:25:47;;;;;;;30.70;15.52;;;-4.20;1.00;;;;;;7359051;19;20031;-75
2023/02/09 05:28:17;;;;;;;31.90;16.08;;;-4.20;1.00;;;;;;7358578;19;20011;-74
2023/02/09 05:30:52;;;;;;;28.67;15.52;;;-4.20;1.00;;;;;;7357433;19;20114;-75
2023/02/09 05:33:22;;;;;;;31.55;16.88;;;-4.40;1.00;;;;;;7380027;19;20366;-75
2023/02/09 05:35:56;;;;;;;29.95;16.17;;;-4.40;1.00;;;;;;7358871;19;20462;-76
2023/02/09 05:38:26;;;;;;;29.75;15.95;;;-4.40;1.00;;;;;;7357017;19;20442;-74
2023/02/09 05:40:56;;;;;;;28.75;15.25;;;-4.50;1.00;;;;;;7358468;19;20018;-74
2023/02/09 05:43:25;;;;;;;28.13;15.05;;;-4.50;1.00;;;;;;7359600;19;20015;-74
2023/02/09 05:45:55;;;;;;;25.45;14.07;;;-4.50;1.00;;;;;;7357599;19;20046;-74
2023/02/09 05:48:25;;;;;;;28.85;15.65;;;-4.60;1.00;;;;;;7387621;19;20015;-73
2023/02/09 05:50:57;;;;;;;29.48;14.90;;;-4.60;1.00;;;;;;7386068;19;20031;-74
2023/02/09 05:53:27;;;;;;;29.60;15.88;;;-4.60;1.00;;;;;;7394031;19;20014;-74
2023/02/09 05:55:57;;;;;;;31.98;15.32;;;-4.60;1.00;;;;;;7394224;19;20011;-75
2023/02/09 05:58:27;;;;;;;31.45;16.40;;;-4.60;1.00;;;;;;7391363;19;20022;-75
2023/02/09 06:00:57;;;;;;;34.67;16.92;;;-4.60;1.00;;;;;;7393424;19;20019;-74
2023/02/09 06:03:26;;;;;;;33.20;16.88;;;-4.50;1.00;;;;;;7393183;19;20355;-74
2023/02/09 06:05:59;;;;;;;32.83;16.67;;;-4.50;1.00;;;;;;7393304;19;20007;-75
2023/02/09 06:08:29;;;;;;;32.70;17.23;;;-4.50;1.00;;;;;;7392829;19;20477;-75
2023/02/09 06:11:00;;;;;;;31.33;17.45;;;-4.60;1.00;;;;;;7393081;19;20046;-74
2023/02/09 06:13:30;;;;;;;35.67;18.10;;;-4.60;1.00;;;;;;7394942;19;20018;-74
2023/02/09 06:16:00;;;;;;;35.30;18.23;;;-4.50;1.00;;;;;;7393096;19;20014;-75
2023/02/09 06:18:30;;;;;;;32.47;17.67;;;-4.50;1.00;;;;;;7390070;19;20015;-74
2023/02/09 06:21:05;;;;;;;32.85;17.67;;;-4.50;1.00;;;;;;7389158;19;20014;-75
2023/02/09 06:23:35;;;;;;;31.98;17.10;;;-4.50;1.00;;;;;;7392957;19;20545;-75
2023/02/09 06:26:08;;;;;;;33.60;17.02;;;-4.50;1.00;;;;;;7393042;19;20095;-75
2023/02/09 06:28:38;;;;;;;33.63;18.85;;;-4.50;1.00;;;;;;7391069;19;20014;-74
2023/02/09 06:31:09;;;;;;;37.90;20.52;;;-4.60;1.00;;;;;;7392317;19;20013;-76
2023/02/09 06:33:39;;;;;;;36.72;19.35;;;-4.60;1.00;;;;;;7353052;19;20537;-76
2023/02/09 06:36:12;;;;;;;34.00;18.80;;;-4.60;1.00;;;;;;7387478;19;20009;-77
2023/02/09 06:38:42;;;;;;;39.83;21.42;;;-4.60;1.00;;;;;;7362499;19;20038;-75
2023/02/09 06:41:12;;;;;;;36.97;19.50;;;-4.60;1.00;;;;;;7363041;19;20078;-75
2023/02/09 06:43:42;;;;;;;36.60;20.05;;;-4.50;1.00;;;;;;7363236;19;20355;-74
2023/02/09 06:46:13;;;;;;;38.60;19.85;;;-4.50;1.00;;;;;;7384805;19;20014;-74
2023/02/09 06:48:43;;;;;;;33.78;19.15;;;-4.50;1.00;;;;;;7365166;19;20011;-74
2023/02/09 06:51:17;;;;;;;40.13;21.38;;;-4.50;1.00;;;;;;7363238;19;20443;-74
2023/02/09 06:53:47;;;;;;;40.35;21.23;;;-4.40;1.00;;;;;;7363305;19;20011;-75
2023/02/09 06:56:16;;;;;;;38.65;20.00;;;-4.40;1.00;;;;;;7363818;19;20014;-74
2023/02/09 06:58:46;;;;;;;44.60;21.30;;;-4.30;1.00;;;;;;7360379;19;20021;-75
2023/02/09 07:01:17;;;;;;;41.85;21.35;;;-4.30;1.00;;;;;;7385077;19;20018;-75
2023/02/09 07:03:47;;;;;;;40.92;21.85;;;-4.30;1.00;;;;;;7361774;19;20015;-74
2023/02/09 07:06:21;;;;;;;40.45;20.58;;;-4.20;1.00;;;;;;7363424;19;20010;-76
2023/02/09 07:08:52;;;;;;;40.33;21.70;;;-4.10;1.00;;;;;;7361860;19;20022;-75
2023/02/09 07:11:22;;;;;;;40.92;21.02;;;-4.20;1.00;;;;;;7362002;19;20074;-76
2023/02/09 07:13:51;;;;;;;39.88;21.08;;;-4.10;1.00;;;;;;7365287;19;20025;-75
2023/02/09 07:16:21;;;;;;;39.00;21.75;;;-4.10;1.00;;;;;;7384297;19;20014;-74
2023/02/09 07:18:51;;;;;;;41.35;21.42;;;-4.10;1.00;;;;;;7359406;19;20110;-74
2023/02/09 07:21:24;;;;;;;44.53;21.30;;;-4.00;1.00;;;;;;7361899;19;20049;-74
2023/02/09 07:23:53;;;;;;;40.47;21.48;;;-4.00;1.00;;;;;;7362689;19;20021;-74
2023/02/09 07:26:23;;;;;;;54.35;29.38;;;-3.90;1.00;;;;;;7361782;19;20014;-76
2023/02/09 07:28:53;;;;;;;43.38;22.73;;;-3.80;1.00;;;;;;7361280;19;20011;-76
2023/02/09 07:31:23;;;;;;;39.13;21.00;;;-3.80;1.00;;;;;;7383205;19;20029;-75
2023/02/09 07:33:55;;;;;;;41.88;20.48;;;-3.80;1.00;;;;;;7365897;19;20015;-75
2023/02/09 07:36:27;;;;;;;46.30;21.05;;;-3.70;1.00;;;;;;7390662;19;20014;-76
2023/02/09 07:38:58;;;;;;;43.10;20.50;;;-3.60;1.00;;;;;;7386739;19;20374;-76
2023/02/09 07:41:28;;;;;;;41.22;20.83;;;-3.60;1.00;;;;;;7389675;19;20479;-75
2023/02/09 07:43:58;;;;;;;45.70;21.42;;;-3.50;1.00;;;;;;7390105;19;20129;-75
2023/02/09 07:46:28;;;;;;;41.67;20.77;;;-3.50;1.00;;;;;;7389061;19;20074;-76
2023/02/09 07:48:59;;;;;;;45.67;20.98;;;-3.50;1.00;;;;;;7388865;19;20493;-76
2023/02/09 07:51:32;;;;;;;36.60;19.63;;;-3.40;1.00;;;;;;7389891;19;20018;-76
2023/02/09 07:54:03;;;;;;;40.47;19.55;;;-3.40;1.00;;;;;;7388743;19;20014;-74
2023/02/09 07:56:36;;;;;;;37.38;20.13;;;-3.30;1.00;;;;;;7353606;19;20024;-76
2023/02/09 07:59:05;;;;;;;37.17;19.48;;;-3.30;1.00;;;;;;7386726;19;20018;-77
2023/02/09 08:01:36;;;;;;;35.40;19.30;;;-3.20;1.00;;;;;;7362159;19;20109;-76
2023/02/09 08:04:06;;;;;;;38.10;18.98;;;-3.20;1.00;;;;;;7385562;19;20015;-76
2023/02/09 08:06:41;;;;;;;36.75;19.23;;;-3.20;1.00;;;;;;7366666;19;20014;-76
2023/02/09 08:09:13;;;;;;;46.72;20.38;;;-3.20;1.00;;;;;;7359300;19;20010;-76
2023/02/09 08:11:48;;;;;;;38.80;20.10;;;-3.00;1.00;;;;;;7360202;19;20049;-76
2023/02/09 08:14:19;;;;;;;;;;;-2.90;1.00;;;;;;7377975;19;20007;-77
2023/02/09 08:17:18;;;;;;;40.78;20.40;;;-2.90;1.00;;;;;;7395271;19;19935;-77
2023/02/09 08:19:41;;;;;;;38.60;21.58;;;-2.90;1.00;;;;;;7392752;19;20018;-76
2023/02/09 08:22:14;;;;;;;38.90;21.25;;;-2.80;1.00;;;;;;7394954;19;20021;-76
2023/02/09 08:24:44;;;;;;;43.45;24.58;;;-2.70;1.00;;;;;;7364694;19;20014;-76
2023/02/09 08:27:14;;;;;;;42.72;21.13;;;-2.50;1.00;;;;;;7363678;19;20125;-76
2023/02/09 08:29:44;;;;;;;43.97;22.60;;;-2.40;1.00;;;;;;7359726;19;20470;-76
2023/02/09 08:32:17;;;;;;;47.20;22.65;;;-2.40;1.00;;;;;;7358891;19;20467;-76
2023/02/09 08:34:46;;;;;;;49.05;22.27;;;-2.40;1.00;;;;;;7359521;19;20672;-75
2023/02/09 08:37:19;;;;;;;44.42;22.00;;;-2.30;1.00;;;;;;7383881;19;20007;-76
2023/02/09 08:39:49;;;;;;;45.10;22.55;;;-2.40;1.00;;;;;;7358058;19;20021;-75
2023/02/09 08:42:19;;;;;;;43.28;22.27;;;-2.20;1.00;;;;;;7358894;19;20781;-76
2023/02/09 08:44:50;;;;;;;46.53;22.85;;;-2.20;1.00;;;;;;7360049;19;20489;-75
2023/02/09 08:47:21;;;;;;;49.47;22.73;;;-2.00;1.00;;;;;;7360078;19;20025;-77
2023/02/09 08:49:52;;;;;;;48.45;22.60;;;-2.00;1.00;;;;;;7357899;19;20014;-76
2023/02/09 08:52:24;;;;;;;51.55;23.50;;;-1.90;1.00;;;;;;7359719;19;20017;-76
2023/02/09 08:54:54;;;;;;;46.92;23.55;;;-1.80;1.00;;;;;;7384279;19;20074;-78
2023/02/09 08:57:24;;;;;;;45.50;23.13;;;-1.70;1.00;;;;;;7364211;19;20025;-77
2023/02/09 09:00:13;;;;;;;45.08;22.92;;;-1.70;1.00;;;;;;7386285;19;20022;-76
2023/02/09 09:02:43;;;;;;;54.08;24.48;;;-1.50;1.00;;;;;;7385637;19;20010;-77
2023/02/09 09:05:12;;;;;;;45.45;23.52;;;-1.50;1.00;;;;;;7387510;19;20305;-77
2023/02/09 09:07:45;;;;;;;48.05;23.30;;;-1.40;1.00;;;;;;7389953;19;20098;-76
2023/02/09 09:10:15;;;;;;;46.42;23.67;;;-1.30;1.00;;;;;;7383353;19;20018;-78
2023/02/09 09:12:45;;;;;;;52.65;23.98;;;-1.30;1.00;;;;;;7386165;19;20030;-78
2023/02/09 09:15:15;;;;;;;43.67;22.85;;;-1.30;1.00;;;;;;7387514;19;20085;-77
2023/02/09 09:17:45;;;;;;;48.30;24.02;;;-1.30;1.00;;;;;;7388075;19;20017;-77
2023/02/09 09:20:15;;;;;;;48.58;24.33;;;-1.20;1.00;;;;;;7384966;19;20014;-77
2023/02/09 09:22:48;;;;;;;49.10;25.02;;;-1.00;1.00;;;;;;7386668;19;20420;-76
2023/02/09 09:25:18;;;;;;;50.75;24.67;;;-0.90;1.00;;;;;;7387939;19;20022;-77
2023/02/09 09:27:48;;;;;;;50.17;25.35;;;-0.70;1.00;;;;;;7396774;19;20099;-77
2023/02/09 09:30:17;;;;;;;47.78;23.52;;;-0.70;1.00;;;;;;7389464;19;20014;-77
2023/02/09 09:32:47;;;;;;;47.45;24.23;;;-0.70;1.00;;;;;;7394029;19;20011;-77
2023/02/09 09:35:21;;;;;;;44.97;23.27;;;-0.60;1.00;;;;;;7394611;19;20052;-76
2023/02/09 09:37:54;;;;;;;45.33;22.42;;;-0.70;1.00;;;;;;7396501;19;20011;-77
2023/02/09 09:40:28;;;;;;;46.17;22.77;;;-0.60;1.00;;;;;;7388744;19;20010;-76
2023/02/09 09:43:00;;;;;;;43.65;23.40;;;-0.50;1.00;;;;;;7393561;19;20107;-78
2023/02/09 09:45:34;;;;;;;41.30;22.92;;;-0.30;1.00;;;;;;7394169;19;20014;-77
2023/02/09 09:48:04;;;;;;;47.67;24.02;;;-0.30;1.00;;;;;;7361680;19;20078;-76
2023/02/09 09:50:38;;;;;;;48.90;24.00;;;-0.30;1.00;;;;;;7366529;19;20011;-77
2023/02/09 09:53:17;;;;;;;53.80;24.10;;;-0.20;1.00;;;;;;7368419;19;20014;-77
2023/02/09 09:55:58;;;;;;;42.05;22.95;;;-0.20;1.00;;;;;;7365323;19;20093;-77
2023/02/09 09:58:30;;;;;;;41.65;23.15;;;-0.10;1.00;;;;;;7368387;19;20034;-76
2023/02/09 10:01:00;;;;;;;51.45;23.98;;;-0.10;1.00;;;;;;7384344;19;20090;-78
2023/02/09 10:03:30;;;;;;;52.28;24.92;;;0.00;1.00;;;;;;7364496;19;20030;-75
2023/02/09 10:06:11;;;;;;;44.58;23.33;;;0.10;1.00;;;;;;7365920;19;20022;-77
2023/02/09 10:08:46;;;;;;;49.90;24.08;;;0.20;1.00;;;;;;7365522;19;20021;-76
2023/02/09 10:11:18;;;;;;;46.20;23.05;;;0.40;1.00;;;;;;7365170;19;20018;-76
2023/02/09 10:13:52;;;;;;;47.67;23.23;;;0.50;1.00;;;;;;7366411;19;20014;-77
2023/02/09 10:16:23;;;;;;;46.27;25.40;;;0.50;1.00;;;;;;7386642;19;20494;-77
2023/02/09 10:18:55;;;;;;;54.10;26.52;;;0.60;1.00;;;;;;7364201;19;20776;-76
2023/02/09 10:21:27;;;;;;;42.33;22.50;;;0.60;1.00;;;;;;7363773;19;20025;-76
2023/02/09 10:24:15;;;;;;;42.92;23.58;;;0.60;1.00;;;;;;7364226;19;20483;-76
2023/02/09 10:26:45;;;;;;;43.60;23.38;;;0.60;1.00;;;;;;7364838;19;20078;-77
2023/02/09 10:29:25;;;;;;;47.80;24.92;;;0.80;1.00;;;;;;7363280;19;20010;-76
2023/02/09 10:32:05;;;;;;;46.92;23.95;;;0.90;1.00;;;;;;7363731;19;20474;-78
2023/02/09 10:34:44;;;;;;;42.90;23.42;;;0.80;1.00;;;;;;7364294;19;20022;-76
2023/02/09 10:37:36;;;;;;;46.25;24.15;;;0.80;1.00;;;;;;7384159;19;20022;-77
2023/02/09 10:40:18;;;;;;;46.80;23.70;;;0.90;1.00;;;;;;7360589;19;20042;-77
2023/02/09 10:42:57;;;;;;;46.20;22.98;;;0.70;1.00;;;;;;7362317;19;20015;-77
2023/02/09 10:45:30;;;;;;;47.50;23.50;;;0.80;1.00;;;;;;7361614;19;20014;-78
2023/02/09 10:48:02;;;;;;;42.58;21.95;;;1.00;1.00;;;;;;7369310;19;20514;-78
2023/02/09 10:50:33;;;;;;;52.20;23.70;;;1.00;1.00;;;;;;7389380;19;20420;-79
2023/02/09 10:53:05;;;;;;;41.88;23.05;;;0.90;1.00;;;;;;7391320;19;20077;-77
2023/02/09 10:55:40;;;;;;;44.53;23.48;;;0.80;1.00;;;;;;7391868;19;20121;-79
2023/02/09 10:58:25;;;;;;;45.25;23.88;;;1.20;1.00;;;;;;7392872;19;20031;-77
2023/02/09 11:01:01;;;;;;;45.28;23.27;;;0.90;1.00;;;;;;7390194;19;20023;-79
2023/02/09 11:03:30;;;;;;;46.80;22.40;;;1.00;1.00;;;;;;7391396;19;20018;-79
2023/02/09 11:06:04;;;;;;;40.10;20.70;;;1.10;1.00;;;;;;7391196;19;20026;-79
2023/02/09 11:08:45;;;;;;;41.42;22.05;;;1.00;1.00;;;;;;7393381;19;20022;-76
2023/02/09 11:11:31;;;;;;;75.68;36.25;;;1.10;1.00;;;;;;7391285;19;20385;-77
2023/02/09 11:14:02;;;;;;;46.67;23.38;;;1.50;1.00;;;;;;7393442;19;20034;-78
2023/02/09 11:16:57;;;;;;;38.92;21.73;;;1.60;1.00;;;;;;7389351;19;20010;-78
2023/02/09 11:19:43;;;;;;;44.10;22.50;;;1.40;1.00;;;;;;7388885;19;20043;-77
2023/02/09 11:22:17;;;;;;;39.55;21.02;;;1.40;1.00;;;;;;7387195;19;20022;-78
2023/02/09 11:25:00;;;;;;;47.45;23.13;;;1.70;1.00;;;;;;7390204;19;20329;-77
2023/02/09 11:28:04;;;;;;;42.47;21.38;;;1.80;1.00;;;;;;7391783;19;20358;-77
2023/02/09 11:30:58;;;;;;;38.60;21.80;;;1.80;1.00;;;;;;7387999;19;20019;-77
2023/02/09 11:33:35;;;;;;;42.58;22.60;;;1.80;1.00;;;;;;7390061;19;20014;-78
2023/02/09 11:36:17;;;;;;;42.00;22.23;;;1.60;1.00;;;;;;7342972;19;20042;-78
2023/02/09 11:38:53;;;;;;;42.67;21.60;;;1.80;1.00;;;;;;7387545;19;20018;-77
2023/02/09 11:44:22;;;;;;;44.97;22.67;;;2.20;1.00;;;;;;7364698;19;20018;-77
2023/02/09 11:47:00;;;;;;;42.42;24.30;;;2.30;1.00;;;;;;7382978;19;20014;-77
2023/02/09 11:49:35;;;;;;;41.67;21.20;;;2.40;1.00;;;;;;7357453;19;20044;-76
2023/02/09 11:52:06;;;;;;;36.88;20.00;;;2.50;1.00;;;;;;7360905;19;20029;-76
2023/02/09 11:54:38;;;;;;;40.22;22.33;;;2.40;1.00;;;;;;7361187;19;20038;-77
2023/02/09 11:57:20;;;;;;;44.90;23.10;;;2.20;1.00;;;;;;7363298;19;20015;-75
2023/02/09 11:59:57;;;;;;;43.78;23.08;;;2.20;1.00;;;;;;7359836;19;20044;-76
2023/02/09 12:02:46;;;;;;;44.20;24.83;;;2.20;1.00;;;;;;7359366;19;20025;-76
2023/02/09 12:05:19;;;;;;;45.75;22.48;;;2.20;1.00;;;;;;7360347;19;20015;-76
2023/02/09 12:08:15;;;;;;;42.47;22.00;;;2.10;1.00;;;;;;7383198;19;20086;-77
2023/02/09 12:10:50;;;;;;;40.22;21.50;;;2.20;1.00;;;;;;7358668;19;20046;-77
2023/02/09 12:13:32;;;;;;;42.13;23.10;;;2.40;1.00;;;;;;7360864;19;20018;-77
2023/02/09 12:16:13;;;;;;;41.13;22.42;;;2.50;1.00;;;;;;7358209;19;20477;-77
2023/02/09 12:18:44;;;;;;;38.90;22.20;;;2.60;1.00;;;;;;7358862;19;20074;-76
2023/02/09 12:21:15;;;;;;;39.95;20.85;;;2.70;1.00;;;;;;7359168;19;20019;-77
2023/02/09 12:23:45;;;;;;;47.83;21.52;;;2.80;1.00;;;;;;7361265;19;20014;-77
2023/02/09 12:26:41;;;;;;;41.13;22.10;;;2.70;1.00;;;;;;7360639;19;20082;-77
2023/02/09 12:29:34;;;;;;;38.00;20.80;;;2.80;1.00;;;;;;7361609;19;20486;-77
2023/02/09 12:32:46;;;;;;;37.28;21.08;;;2.80;1.00;;;;;;7360715;19;20082;-75
2023/02/09 12:35:27;;;;;;;42.65;22.23;;;2.70;1.00;;;;;;7358458;19;20091;-76
2023/02/09 12:38:18;;;;;;;39.63;21.45;;;2.70;1.00;;;;;;7388855;19;20011;-77
2023/02/09 12:41:04;;;;;;;41.55;22.05;;;2.70;1.00;;;;;;7386626;19;20035;-77
2023/02/09 12:43:41;;;;;;;43.67;21.55;;;2.80;1.00;;;;;;7386043;19;20015;-76
2023/02/09 12:46:23;;;;;;;41.85;22.25;;;2.80;1.00;;;;;;7387480;19;20011;-76
2023/02/09 12:49:20;;;;;;;39.38;20.77;;;2.80;1.00;;;;;;7390173;19;20018;-77
2023/02/09 12:52:11;;;;;;;44.15;20.20;;;3.00;1.00;;;;;;7384719;19;20502;-76
2023/02/09 12:54:47;;;;;;;37.92;20.10;;;2.90;1.00;;;;;;7384297;19;20010;-76
2023/02/09 12:57:52;;;;;;;34.23;19.47;;;3.00;1.00;;;;;;7384396;19;20014;-76
2023/02/09 13:00:32;;;;;;;;;;;3.00;1.00;;;;;;7381874;19;20030;-76
2023/02/09 13:03:14;;;;;;;32.95;18.67;;;3.20;1.00;;;;;;7353828;19;19910;-76
2023/02/09 13:05:48;;;;;;;38.53;21.08;;;3.10;1.00;;;;;;7377910;19;20014;-76
2023/02/09 13:08:36;;;;;;;;;;;3.00;1.00;;;;;;7360189;19;20018;-77
2023/02/09 13:11:16;;;;;;;38.03;21.02;;;3.20;1.00;;;;;;7357818;19;19923;-75
2023/02/09 13:13:52;;;;;;;36.17;20.85;;;3.20;1.00;;;;;;7358236;19;20014;-75
2023/02/09 13:16:44;;;;;;;53.28;21.83;;;3.40;1.00;;;;;;7355941;19;20018;-75
2023/02/09 13:19:28;;;;;;;43.78;21.55;;;3.30;1.00;;;;;;7359490;19;20051;-75
2023/02/09 13:22:28;;;;;;;40.15;22.02;;;3.10;1.00;;;;;;7356852;19;20010;-76
2023/02/09 13:25:01;;;;;;;40.08;21.85;;;3.10;1.00;;;;;;7356810;19;20066;-76